sensor_id;sensor_type;location;lat;lon;timestamp;P1;durP1;ratioP1;P2;durP2;ratioP2
19923;SDS011;10124;53.068;18.224;2023-03-17T00:01:54;21.40;;;13.10;;
19923;SDS011;10124;53.068;18.224;2023-03-17T00:04:23;22.60;;;12.87;;
19923;SDS011;10124;53.068;18.224;2023-03-17T00:06:52;17.90;;;12.77;;
19923;SDS011;10124;53.068;18.224;2023-03-17T00:09:20;25.03;;;13.13;;
19923;SDS011;10124;53.068;18.224;2023-03-17T00:11:48;24.23;;;12.73;;
19923;SDS011;10124;53.068;18.224;2023-03-17T00:14:17;23.53;;;12.87;;
19923;SDS011;10124;53.068;18.224;2023-03-17T00:16:49;17.43;;;12.03;;
19923;SDS011;10124;53.068;18.224;2023-03-17T00:19:20;21.77;;;13.17;;
19923;SDS011;10124;53.068;18.224;2023-03-17T00:21:50;29.40;;;15.73;;
19923;SDS011;10124;53.068;18.224;2023-03-17T00:24:17;31.77;;;14.47;;
19923;SDS011;10124;53.068;18.224;2023-03-17T00:26:45;38.00;;;19.70;;
19923;SDS011;10124;53.068;18.224;2023-03-17T00:29:14;34.50;;;19.43;;
19923;SDS011;10124;53.068;18.224;2023-03-17T00:31:42;42.17;;;22.30;;
19923;SDS011;10124;53.068;18.224;2023-03-17T00:34:12;41.03;;;22.13;;
19923;SDS011;10124;53.068;18.224;2023-03-17T00:36:44;43.43;;;25.47;;
19923;SDS011;10124;53.068;18.224;2023-03-17T00:39:14;52.50;;;28.50;;
19923;SDS011;10124;53.068;18.224;2023-03-17T00:41:41;52.70;;;26.57;;
19923;SDS011;10124;53.068;18.224;2023-03-17T00:44:09;42.50;;;25.60;;
19923;SDS011;10124;53.068;18.224;2023-03-17T00:46:38;49.50;;;27.07;;
19923;SDS011;10124;53.068;18.224;2023-03-17T00:49:25;55.23;;;26.87;;
19923;SDS011;10124;53.068;18.224;2023-03-17T00:51:53;57.70;;;29.33;;
19923;SDS011;10124;53.068;18.224;2023-03-17T00:54:21;53.23;;;29.83;;
19923;SDS011;10124;53.068;18.224;2023-03-17T00:56:50;50.67;;;28.70;;
19923;SDS011;10124;53.068;18.224;2023-03-17T01:01:48;53.37;;;28.37;;
19923;SDS011;10124;53.068;18.224;2023-03-17T01:04:16;54.07;;;28.97;;
19923;SDS011;10124;53.068;18.224;2023-03-17T01:06:46;49.90;;;27.80;;
19923;SDS011;10124;53.068;18.224;2023-03-17T01:09:17;46.27;;;27.13;;
19923;SDS011;10124;53.068;18.224;2023-03-17T01:11:46;49.77;;;24.93;;
19923;SDS011;10124;53.068;18.224;2023-03-17T01:14:14;38.60;;;21.97;;
19923;SDS011;10124;53.068;18.224;2023-03-17T01:16:42;35.87;;;21.33;;
19923;SDS011;10124;53.068;18.224;2023-03-17T01:19:11;39.67;;;22.47;;
19923;SDS011;10124;53.068;18.224;2023-03-17T01:21:39;35.70;;;21.63;;
19923;SDS011;10124;53.068;18.224;2023-03-17T01:24:09;49.40;;;27.10;;
19923;SDS011;10124;53.068;18.224;2023-03-17T01:26:38;37.57;;;23.27;;
19923;SDS011;10124;53.068;18.224;2023-03-17T01:29:07;41.10;;;25.17;;
19923;SDS011;10124;53.068;18.224;2023-03-17T01:31:35;48.07;;;28.60;;
19923;SDS011;10124;53.068;18.224;2023-03-17T01:34:04;61.03;;;32.10;;
19923;SDS011;10124;53.068;18.224;2023-03-17T01:36:32;60.37;;;33.70;;
19923;SDS011;10124;53.068;18.224;2023-03-17T01:39:01;62.67;;;33.20;;
19923;SDS011;10124;53.068;18.224;2023-03-17T01:41:32;51.07;;;28.77;;
19923;SDS011;10124;53.068;18.224;2023-03-17T01:44:01;41.57;;;25.87;;
19923;SDS011;10124;53.068;18.224;2023-03-17T01:46:29;41.30;;;23.53;;
19923;SDS011;10124;53.068;18.224;2023-03-17T01:54:11;36.33;;;23.53;;
19923;SDS011;10124;53.068;18.224;2023-03-17T01:56:43;40.80;;;24.43;;
19923;SDS011;10124;53.068;18.224;2023-03-17T01:59:17;46.30;;;26.10;;
19923;SDS011;10124;53.068;18.224;2023-03-17T02:01:46;42.47;;;26.03;;
19923;SDS011;10124;53.068;18.224;2023-03-17T02:04:17;47.27;;;29.00;;
19923;SDS011;10124;53.068;18.224;2023-03-17T02:06:47;51.50;;;32.80;;
19923;SDS011;10124;53.068;18.224;2023-03-17T02:09:24;58.17;;;34.77;;
19923;SDS011;10124;53.068;18.224;2023-03-17T02:11:53;58.47;;;34.10;;
19923;SDS011;10124;53.068;18.224;2023-03-17T02:14:22;58.50;;;35.80;;
19923;SDS011;10124;53.068;18.224;2023-03-17T02:16:50;61.70;;;35.60;;
19923;SDS011;10124;53.068;18.224;2023-03-17T02:19:18;62.33;;;36.43;;
19923;SDS011;10124;53.068;18.224;2023-03-17T02:21:48;62.53;;;36.33;;
19923;SDS011;10124;53.068;18.224;2023-03-17T02:24:19;60.70;;;34.77;;
19923;SDS011;10124;53.068;18.224;2023-03-17T02:27:03;70.40;;;38.10;;
19923;SDS011;10124;53.068;18.224;2023-03-17T02:29:44;65.67;;;39.53;;
19923;SDS011;10124;53.068;18.224;2023-03-17T02:32:13;72.73;;;42.57;;
19923;SDS011;10124;53.068;18.224;2023-03-17T02:34:41;68.33;;;38.10;;
19923;SDS011;10124;53.068;18.224;2023-03-17T02:37:09;64.07;;;37.83;;
19923;SDS011;10124;53.068;18.224;2023-03-17T02:39:37;55.97;;;35.00;;
19923;SDS011;10124;53.068;18.224;2023-03-17T02:42:05;60.87;;;35.93;;
19923;SDS011;10124;53.068;18.224;2023-03-17T02:44:33;67.47;;;38.43;;
19923;SDS011;10124;53.068;18.224;2023-03-17T02:47:01;69.83;;;40.03;;
19923;SDS011;10124;53.068;18.224;2023-03-17T02:49:29;75.30;;;42.47;;
19923;SDS011;10124;53.068;18.224;2023-03-17T02:51:57;70.47;;;40.83;;
19923;SDS011;10124;53.068;18.224;2023-03-17T02:54:25;73.47;;;39.97;;
19923;SDS011;10124;53.068;18.224;2023-03-17T02:56:53;68.87;;;41.67;;
19923;SDS011;10124;53.068;18.224;2023-03-17T02:59:21;79.63;;;45.20;;
19923;SDS011;10124;53.068;18.224;2023-03-17T03:01:49;81.43;;;48.37;;
19923;SDS011;10124;53.068;18.224;2023-03-17T03:04:17;86.17;;;47.43;;
19923;SDS011;10124;53.068;18.224;2023-03-17T03:06:45;86.23;;;50.63;;
19923;SDS011;10124;53.068;18.224;2023-03-17T03:09:13;81.83;;;50.30;;
19923;SDS011;10124;53.068;18.224;2023-03-17T03:11:44;81.27;;;51.77;;
19923;SDS011;10124;53.068;18.224;2023-03-17T03:14:12;72.67;;;44.97;;
19923;SDS011;10124;53.068;18.224;2023-03-17T03:16:40;71.03;;;45.97;;
19923;SDS011;10124;53.068;18.224;2023-03-17T03:19:09;73.77;;;43.87;;
19923;SDS011;10124;53.068;18.224;2023-03-17T03:21:37;76.10;;;44.23;;
19923;SDS011;10124;53.068;18.224;2023-03-17T03:24:05;69.70;;;44.70;;
19923;SDS011;10124;53.068;18.224;2023-03-17T03:26:33;74.67;;;41.37;;
19923;SDS011;10124;53.068;18.224;2023-03-17T03:29:01;58.43;;;38.30;;
19923;SDS011;10124;53.068;18.224;2023-03-17T03:31:29;61.73;;;38.73;;
19923;SDS011;10124;53.068;18.224;2023-03-17T03:33:57;66.03;;;40.93;;
19923;SDS011;10124;53.068;18.224;2023-03-17T03:36:25;63.87;;;38.97;;
19923;SDS011;10124;53.068;18.224;2023-03-17T03:38:53;63.37;;;38.37;;
19923;SDS011;10124;53.068;18.224;2023-03-17T03:41:21;64.67;;;39.70;;
19923;SDS011;10124;53.068;18.224;2023-03-17T03:43:48;65.70;;;42.73;;
19923;SDS011;10124;53.068;18.224;2023-03-17T03:46:16;60.40;;;39.67;;
19923;SDS011;10124;53.068;18.224;2023-03-17T03:48:44;67.07;;;41.00;;
19923;SDS011;10124;53.068;18.224;2023-03-17T03:51:12;64.93;;;42.53;;
19923;SDS011;10124;53.068;18.224;2023-03-17T03:53:40;72.20;;;45.67;;
19923;SDS011;10124;53.068;18.224;2023-03-17T03:56:08;73.83;;;42.87;;
19923;SDS011;10124;53.068;18.224;2023-03-17T03:58:36;76.33;;;45.17;;
19923;SDS011;10124;53.068;18.224;2023-03-17T04:01:04;64.47;;;41.67;;
19923;SDS011;10124;53.068;18.224;2023-03-17T04:03:32;66.97;;;41.00;;
19923;SDS011;10124;53.068;18.224;2023-03-17T04:06:00;68.60;;;41.13;;
19923;SDS011;10124;53.068;18.224;2023-03-17T04:08:29;68.30;;;41.43;;
19923;SDS011;10124;53.068;18.224;2023-03-17T04:10:57;63.30;;;42.57;;
19923;SDS011;10124;53.068;18.224;2023-03-17T04:13:25;66.30;;;41.70;;
19923;SDS011;10124;53.068;18.224;2023-03-17T04:15:53;65.13;;;42.47;;
19923;SDS011;10124;53.068;18.224;2023-03-17T04:18:21;73.20;;;41.60;;
19923;SDS011;10124;53.068;18.224;2023-03-17T04:20:49;66.80;;;42.70;;
19923;SDS011;10124;53.068;18.224;2023-03-17T04:23:17;70.40;;;42.67;;
19923;SDS011;10124;53.068;18.224;2023-03-17T04:25:45;64.60;;;39.73;;
19923;SDS011;10124;53.068;18.224;2023-03-17T04:28:13;67.73;;;39.97;;
19923;SDS011;10124;53.068;18.224;2023-03-17T04:30:41;63.80;;;40.13;;
19923;SDS011;10124;53.068;18.224;2023-03-17T04:33:08;73.53;;;44.87;;
19923;SDS011;10124;53.068;18.224;2023-03-17T04:35:37;83.60;;;46.57;;
19923;SDS011;10124;53.068;18.224;2023-03-17T04:38:04;133.47;;;64.10;;
19923;SDS011;10124;53.068;18.224;2023-03-17T04:40:32;133.17;;;66.13;;
19923;SDS011;10124;53.068;18.224;2023-03-17T04:43:00;98.70;;;52.53;;
19923;SDS011;10124;53.068;18.224;2023-03-17T04:45:29;81.33;;;44.93;;
19923;SDS011;10124;53.068;18.224;2023-03-17T04:47:57;79.87;;;43.43;;
19923;SDS011;10124;53.068;18.224;2023-03-17T04:50:25;74.67;;;44.80;;
19923;SDS011;10124;53.068;18.224;2023-03-17T04:52:53;75.80;;;46.50;;
19923;SDS011;10124;53.068;18.224;2023-03-17T04:55:22;71.87;;;43.60;;
19923;SDS011;10124;53.068;18.224;2023-03-17T04:57:49;70.70;;;45.50;;
19923;SDS011;10124;53.068;18.224;2023-03-17T05:00:17;75.13;;;45.20;;
19923;SDS011;10124;53.068;18.224;2023-03-17T05:02:45;71.60;;;43.93;;
19923;SDS011;10124;53.068;18.224;2023-03-17T05:05:13;72.50;;;44.67;;
19923;SDS011;10124;53.068;18.224;2023-03-17T05:07:40;71.30;;;44.43;;
19923;SDS011;10124;53.068;18.224;2023-03-17T05:10:10;73.87;;;46.17;;
19923;SDS011;10124;53.068;18.224;2023-03-17T05:12:39;74.87;;;44.37;;
19923;SDS011;10124;53.068;18.224;2023-03-17T05:15:08;73.67;;;44.87;;
19923;SDS011;10124;53.068;18.224;2023-03-17T05:17:36;70.83;;;45.23;;
19923;SDS011;10124;53.068;18.224;2023-03-17T05:20:04;69.20;;;43.60;;
19923;SDS011;10124;53.068;18.224;2023-03-17T05:22:33;74.10;;;44.60;;
19923;SDS011;10124;53.068;18.224;2023-03-17T05:25:02;72.30;;;43.00;;
19923;SDS011;10124;53.068;18.224;2023-03-17T05:27:30;66.33;;;42.80;;
19923;SDS011;10124;53.068;18.224;2023-03-17T05:29:58;67.70;;;42.70;;
19923;SDS011;10124;53.068;18.224;2023-03-17T05:32:25;63.07;;;42.60;;
19923;SDS011;10124;53.068;18.224;2023-03-17T05:34:53;64.37;;;42.57;;
19923;SDS011;10124;53.068;18.224;2023-03-17T05:37:21;62.73;;;42.47;;
19923;SDS011;10124;53.068;18.224;2023-03-17T05:39:49;66.47;;;40.53;;
19923;SDS011;10124;53.068;18.224;2023-03-17T05:42:19;66.83;;;41.87;;
19923;SDS011;10124;53.068;18.224;2023-03-17T05:44:47;65.70;;;40.43;;
19923;SDS011;10124;53.068;18.224;2023-03-17T05:47:14;60.13;;;38.53;;
19923;SDS011;10124;53.068;18.224;2023-03-17T05:49:42;64.53;;;40.10;;
19923;SDS011;10124;53.068;18.224;2023-03-17T05:52:10;65.70;;;40.43;;
19923;SDS011;10124;53.068;18.224;2023-03-17T05:54:38;60.10;;;39.53;;
19923;SDS011;10124;53.068;18.224;2023-03-17T05:57:06;64.93;;;39.83;;
19923;SDS011;10124;53.068;18.224;2023-03-17T05:59:34;62.40;;;39.37;;
19923;SDS011;10124;53.068;18.224;2023-03-17T06:02:01;69.37;;;40.37;;
19923;SDS011;10124;53.068;18.224;2023-03-17T06:04:29;62.50;;;38.87;;
19923;SDS011;10124;53.068;18.224;2023-03-17T06:06:58;60.80;;;38.63;;
19923;SDS011;10124;53.068;18.224;2023-03-17T06:09:26;71.97;;;40.30;;
19923;SDS011;10124;53.068;18.224;2023-03-17T06:11:54;65.60;;;39.20;;
19923;SDS011;10124;53.068;18.224;2023-03-17T06:14:22;59.80;;;37.83;;
19923;SDS011;10124;53.068;18.224;2023-03-17T06:16:52;55.83;;;33.47;;
19923;SDS011;10124;53.068;18.224;2023-03-17T06:19:20;51.33;;;32.77;;
19923;SDS011;10124;53.068;18.224;2023-03-17T06:21:48;56.80;;;34.07;;
19923;SDS011;10124;53.068;18.224;2023-03-17T06:24:16;53.77;;;31.50;;
19923;SDS011;10124;53.068;18.224;2023-03-17T06:26:43;48.87;;;31.47;;
19923;SDS011;10124;53.068;18.224;2023-03-17T06:29:12;50.37;;;29.00;;
19923;SDS011;10124;53.068;18.224;2023-03-17T06:31:39;43.90;;;27.47;;
19923;SDS011;10124;53.068;18.224;2023-03-17T06:34:08;41.07;;;26.97;;
19923;SDS011;10124;53.068;18.224;2023-03-17T06:36:35;46.07;;;27.20;;
19923;SDS011;10124;53.068;18.224;2023-03-17T06:39:05;43.30;;;27.23;;
19923;SDS011;10124;53.068;18.224;2023-03-17T06:41:32;44.60;;;26.47;;
19923;SDS011;10124;53.068;18.224;2023-03-17T06:44:00;39.67;;;25.33;;
19923;SDS011;10124;53.068;18.224;2023-03-17T06:46:27;46.50;;;26.47;;
19923;SDS011;10124;53.068;18.224;2023-03-17T06:48:55;43.63;;;25.77;;
19923;SDS011;10124;53.068;18.224;2023-03-17T06:51:22;44.50;;;26.60;;
19923;SDS011;10124;53.068;18.224;2023-03-17T06:53:50;39.43;;;25.10;;
19923;SDS011;10124;53.068;18.224;2023-03-17T06:56:17;43.07;;;25.10;;
19923;SDS011;10124;53.068;18.224;2023-03-17T06:58:56;42.20;;;25.17;;
19923;SDS011;10124;53.068;18.224;2023-03-17T07:01:25;45.57;;;24.90;;
19923;SDS011;10124;53.068;18.224;2023-03-17T07:03:53;41.90;;;23.30;;
19923;SDS011;10124;53.068;18.224;2023-03-17T07:06:21;39.83;;;24.27;;
19923;SDS011;10124;53.068;18.224;2023-03-17T07:08:49;40.63;;;24.10;;
19923;SDS011;10124;53.068;18.224;2023-03-17T07:11:17;38.57;;;24.03;;
19923;SDS011;10124;53.068;18.224;2023-03-17T07:13:46;42.73;;;23.80;;
19923;SDS011;10124;53.068;18.224;2023-03-17T07:16:14;42.63;;;22.07;;
19923;SDS011;10124;53.068;18.224;2023-03-17T07:18:42;41.93;;;23.63;;
19923;SDS011;10124;53.068;18.224;2023-03-17T07:21:10;45.90;;;23.60;;
19923;SDS011;10124;53.068;18.224;2023-03-17T07:23:38;42.23;;;22.90;;
19923;SDS011;10124;53.068;18.224;2023-03-17T07:26:06;43.03;;;23.47;;
19923;SDS011;10124;53.068;18.224;2023-03-17T07:28:35;41.27;;;22.70;;
19923;SDS011;10124;53.068;18.224;2023-03-17T07:31:02;38.07;;;21.73;;
19923;SDS011;10124;53.068;18.224;2023-03-17T07:33:33;36.53;;;19.93;;
19923;SDS011;10124;53.068;18.224;2023-03-17T07:36:02;34.47;;;18.17;;
19923;SDS011;10124;53.068;18.224;2023-03-17T07:38:33;41.60;;;19.97;;
19923;SDS011;10124;53.068;18.224;2023-03-17T07:41:02;40.80;;;20.20;;
19923;SDS011;10124;53.068;18.224;2023-03-17T07:43:31;36.50;;;19.90;;
19923;SDS011;10124;53.068;18.224;2023-03-17T07:45:58;37.27;;;18.03;;
19923;SDS011;10124;53.068;18.224;2023-03-17T07:48:27;32.27;;;19.33;;
19923;SDS011;10124;53.068;18.224;2023-03-17T07:50:56;36.43;;;19.20;;
19923;SDS011;10124;53.068;18.224;2023-03-17T07:53:25;34.43;;;18.40;;
19923;SDS011;10124;53.068;18.224;2023-03-17T07:55:53;41.53;;;22.67;;
19923;SDS011;10124;53.068;18.224;2023-03-17T07:58:22;31.20;;;17.40;;
19923;SDS011;10124;53.068;18.224;2023-03-17T08:00:50;29.67;;;15.50;;
19923;SDS011;10124;53.068;18.224;2023-03-17T08:03:18;31.10;;;15.63;;
19923;SDS011;10124;53.068;18.224;2023-03-17T08:05:49;28.27;;;14.67;;
19923;SDS011;10124;53.068;18.224;2023-03-17T08:08:18;29.27;;;13.03;;
19923;SDS011;10124;53.068;18.224;2023-03-17T08:10:48;19.47;;;10.87;;
19923;SDS011;10124;53.068;18.224;2023-03-17T08:13:16;24.23;;;11.70;;
19923;SDS011;10124;53.068;18.224;2023-03-17T08:15:45;21.37;;;10.93;;
19923;SDS011;10124;53.068;18.224;2023-03-17T08:18:13;23.20;;;10.10;;
19923;SDS011;10124;53.068;18.224;2023-03-17T08:20:41;22.03;;;10.53;;
19923;SDS011;10124;53.068;18.224;2023-03-17T08:23:10;26.93;;;10.47;;
19923;SDS011;10124;53.068;18.224;2023-03-17T08:25:38;24.83;;;10.57;;
19923;SDS011;10124;53.068;18.224;2023-03-17T08:28:06;27.37;;;11.77;;
19923;SDS011;10124;53.068;18.224;2023-03-17T08:30:35;21.33;;;11.27;;
19923;SDS011;10124;53.068;18.224;2023-03-17T08:33:04;22.77;;;9.73;;
19923;SDS011;10124;53.068;18.224;2023-03-17T08:35:33;25.00;;;10.40;;
19923;SDS011;10124;53.068;18.224;2023-03-17T08:38:03;20.27;;;9.80;;
19923;SDS011;10124;53.068;18.224;2023-03-17T08:40:31;20.03;;;9.53;;
19923;SDS011;10124;53.068;18.224;2023-03-17T08:42:59;18.13;;;8.75;;
19923;SDS011;10124;53.068;18.224;2023-03-17T08:45:27;17.88;;;8.40;;
19923;SDS011;10124;53.068;18.224;2023-03-17T08:47:56;20.90;;;8.52;;
19923;SDS011;10124;53.068;18.224;2023-03-17T08:50:24;17.25;;;8.48;;
19923;SDS011;10124;53.068;18.224;2023-03-17T08:52:52;21.42;;;9.85;;
19923;SDS011;10124;53.068;18.224;2023-03-17T08:55:20;21.30;;;9.77;;
19923;SDS011;10124;53.068;18.224;2023-03-17T08:57:48;15.75;;;8.85;;
19923;SDS011;10124;53.068;18.224;2023-03-17T09:00:16;19.67;;;8.85;;
19923;SDS011;10124;53.068;18.224;2023-03-17T09:02:46;19.98;;;9.45;;
19923;SDS011;10124;53.068;18.224;2023-03-17T09:05:15;24.38;;;9.00;;
19923;SDS011;10124;53.068;18.224;2023-03-17T09:07:43;17.02;;;8.73;;
19923;SDS011;10124;53.068;18.224;2023-03-17T09:10:12;19.38;;;8.38;;
19923;SDS011;10124;53.068;18.224;2023-03-17T09:12:40;18.30;;;9.27;;
19923;SDS011;10124;53.068;18.224;2023-03-17T09:15:10;21.30;;;9.77;;
19923;SDS011;10124;53.068;18.224;2023-03-17T09:17:38;19.25;;;10.00;;
19923;SDS011;10124;53.068;18.224;2023-03-17T09:20:10;21.05;;;10.13;;
19923;SDS011;10124;53.068;18.224;2023-03-17T09:22:38;22.67;;;10.30;;
19923;SDS011;10124;53.068;18.224;2023-03-17T09:25:06;25.55;;;11.35;;
19923;SDS011;10124;53.068;18.224;2023-03-17T09:27:34;20.75;;;10.63;;
19923;SDS011;10124;53.068;18.224;2023-03-17T09:30:02;24.40;;;10.98;;
19923;SDS011;10124;53.068;18.224;2023-03-17T09:32:30;23.25;;;10.55;;
19923;SDS011;10124;53.068;18.224;2023-03-17T09:34:58;33.22;;;10.93;;
19923;SDS011;10124;53.068;18.224;2023-03-17T09:37:25;25.13;;;10.60;;
19923;SDS011;10124;53.068;18.224;2023-03-17T09:39:53;20.23;;;10.45;;
19923;SDS011;10124;53.068;18.224;2023-03-17T09:53:30;24.50;;;12.52;;
19923;SDS011;10124;53.068;18.224;2023-03-17T09:56:10;22.73;;;11.05;;
19923;SDS011;10124;53.068;18.224;2023-03-17T09:58:44;20.48;;;10.82;;
19923;SDS011;10124;53.068;18.224;2023-03-17T10:01:42;23.63;;;10.90;;
19923;SDS011;10124;53.068;18.224;2023-03-17T10:04:11;19.42;;;9.73;;
19923;SDS011;10124;53.068;18.224;2023-03-17T10:06:43;19.05;;;9.95;;
19923;SDS011;10124;53.068;18.224;2023-03-17T10:09:32;18.92;;;9.43;;
19923;SDS011;10124;53.068;18.224;2023-03-17T10:15:09;14.60;;;8.60;;
19923;SDS011;10124;53.068;18.224;2023-03-17T10:18:13;16.23;;;9.10;;
19923;SDS011;10124;53.068;18.224;2023-03-17T10:20:46;14.02;;;7.18;;
19923;SDS011;10124;53.068;18.224;2023-03-17T10:23:34;18.33;;;7.78;;
19923;SDS011;10124;53.068;18.224;2023-03-17T10:26:06;18.73;;;7.90;;
19923;SDS011;10124;53.068;18.224;2023-03-17T10:28:50;16.73;;;6.75;;
19923;SDS011;10124;53.068;18.224;2023-03-17T10:31:25;18.05;;;8.18;;
19923;SDS011;10124;53.068;18.224;2023-03-17T10:34:15;12.45;;;6.70;;
19923;SDS011;10124;53.068;18.224;2023-03-17T10:36:52;14.85;;;7.80;;
19923;SDS011;10124;53.068;18.224;2023-03-17T10:39:22;15.82;;;6.55;;
19923;SDS011;10124;53.068;18.224;2023-03-17T10:41:52;13.73;;;6.97;;
19923;SDS011;10124;53.068;18.224;2023-03-17T10:47:21;15.30;;;7.27;;
19923;SDS011;10124;53.068;18.224;2023-03-17T10:50:01;15.00;;;7.37;;
19923;SDS011;10124;53.068;18.224;2023-03-17T10:52:57;15.27;;;7.63;;
19923;SDS011;10124;53.068;18.224;2023-03-17T10:55:49;18.93;;;7.67;;
19923;SDS011;10124;53.068;18.224;2023-03-17T11:01:05;19.57;;;8.43;;
19923;SDS011;10124;53.068;18.224;2023-03-17T11:03:53;14.37;;;8.10;;
19923;SDS011;10124;53.068;18.224;2023-03-17T11:06:37;14.43;;;7.67;;
19923;SDS011;10124;53.068;18.224;2023-03-17T11:09:14;16.53;;;8.33;;
19923;SDS011;10124;53.068;18.224;2023-03-17T11:11:47;17.17;;;8.20;;
19923;SDS011;10124;53.068;18.224;2023-03-17T11:14:25;16.03;;;8.00;;
19923;SDS011;10124;53.068;18.224;2023-03-17T11:23:05;15.17;;;7.37;;
19923;SDS011;10124;53.068;18.224;2023-03-17T11:25:40;14.27;;;7.40;;
19923;SDS011;10124;53.068;18.224;2023-03-17T11:28:20;13.73;;;6.90;;
19923;SDS011;10124;53.068;18.224;2023-03-17T11:31:08;15.00;;;7.50;;
19923;SDS011;10124;53.068;18.224;2023-03-17T11:36:34;10.90;;;6.57;;
19923;SDS011;10124;53.068;18.224;2023-03-17T11:39:27;20.80;;;7.53;;
19923;SDS011;10124;53.068;18.224;2023-03-17T11:42:22;14.53;;;7.27;;
19923;SDS011;10124;53.068;18.224;2023-03-17T11:45:02;12.97;;;6.93;;
19923;SDS011;10124;53.068;18.224;2023-03-17T11:47:44;23.17;;;7.60;;
19923;SDS011;10124;53.068;18.224;2023-03-17T11:53:09;13.63;;;7.03;;
19923;SDS011;10124;53.068;18.224;2023-03-17T11:55:55;22.17;;;8.93;;
19923;SDS011;10124;53.068;18.224;2023-03-17T11:58:33;20.93;;;7.17;;
19923;SDS011;10124;53.068;18.224;2023-03-17T12:01:05;14.98;;;7.72;;
19923;SDS011;10124;53.068;18.224;2023-03-17T12:03:38;15.15;;;7.65;;
19923;SDS011;10124;53.068;18.224;2023-03-17T12:06:16;14.27;;;7.60;;
19923;SDS011;10124;53.068;18.224;2023-03-17T12:11:29;17.95;;;7.97;;
19923;SDS011;10124;53.068;18.224;2023-03-17T12:14:03;12.85;;;7.32;;
19923;SDS011;10124;53.068;18.224;2023-03-17T12:16:40;28.75;;;7.93;;
19923;SDS011;10124;53.068;18.224;2023-03-17T12:21:54;13.55;;;7.45;;
19923;SDS011;10124;53.068;18.224;2023-03-17T12:24:36;14.02;;;6.85;;
19923;SDS011;10124;53.068;18.224;2023-03-17T12:30:00;15.93;;;6.72;;
19923;SDS011;10124;53.068;18.224;2023-03-17T12:32:49;13.73;;;6.28;;
19923;SDS011;10124;53.068;18.224;2023-03-17T12:35:39;9.55;;;5.68;;
19923;SDS011;10124;53.068;18.224;2023-03-17T12:38:08;11.73;;;5.82;;
19923;SDS011;10124;53.068;18.224;2023-03-17T12:40:54;15.20;;;5.28;;
19923;SDS011;10124;53.068;18.224;2023-03-17T12:44:06;12.90;;;5.57;;
19923;SDS011;10124;53.068;18.224;2023-03-17T12:55:16;11.35;;;5.20;;
19923;SDS011;10124;53.068;18.224;2023-03-17T12:57:45;12.27;;;5.43;;
19923;SDS011;10124;53.068;18.224;2023-03-17T13:00:23;11.73;;;5.07;;
19923;SDS011;10124;53.068;18.224;2023-03-17T13:03:15;11.02;;;5.50;;
19923;SDS011;10124;53.068;18.224;2023-03-17T13:05:50;7.95;;;4.63;;
19923;SDS011;10124;53.068;18.224;2023-03-17T13:08:28;9.50;;;5.05;;
19923;SDS011;10124;53.068;18.224;2023-03-17T13:16:25;9.48;;;4.80;;
19923;SDS011;10124;53.068;18.224;2023-03-17T13:24:43;8.02;;;3.70;;
19923;SDS011;10124;53.068;18.224;2023-03-17T13:32:55;7.30;;;4.43;;
19923;SDS011;10124;53.068;18.224;2023-03-17T13:52:01;12.93;;;4.85;;
19923;SDS011;10124;53.068;18.224;2023-03-17T13:54:41;12.43;;;5.10;;
19923;SDS011;10124;53.068;18.224;2023-03-17T13:57:23;11.15;;;5.68;;
19923;SDS011;10124;53.068;18.224;2023-03-17T14:00:00;11.07;;;5.65;;
19923;SDS011;10124;53.068;18.224;2023-03-17T14:02:58;10.82;;;4.85;;
19923;SDS011;10124;53.068;18.224;2023-03-17T14:05:33;10.38;;;5.35;;
19923;SDS011;10124;53.068;18.224;2023-03-17T14:08:12;12.00;;;5.80;;
19923;SDS011;10124;53.068;18.224;2023-03-17T14:11:53;10.30;;;5.63;;
19923;SDS011;10124;53.068;18.224;2023-03-17T14:17:11;12.77;;;6.10;;
19923;SDS011;10124;53.068;18.224;2023-03-17T14:19:58;15.77;;;6.35;;
19923;SDS011;10124;53.068;18.224;2023-03-17T14:22:47;15.63;;;6.50;;
19923;SDS011;10124;53.068;18.224;2023-03-17T14:25:21;13.27;;;6.82;;
19923;SDS011;10124;53.068;18.224;2023-03-17T14:27:51;12.15;;;6.35;;
19923;SDS011;10124;53.068;18.224;2023-03-17T14:30:21;11.63;;;5.80;;
19923;SDS011;10124;53.068;18.224;2023-03-17T14:32:57;13.05;;;6.22;;
19923;SDS011;10124;53.068;18.224;2023-03-17T14:35:34;15.25;;;7.22;;
19923;SDS011;10124;53.068;18.224;2023-03-17T14:38:15;13.85;;;6.47;;
19923;SDS011;10124;53.068;18.224;2023-03-17T14:41:05;18.00;;;7.18;;
19923;SDS011;10124;53.068;18.224;2023-03-17T14:43:42;12.60;;;6.40;;
19923;SDS011;10124;53.068;18.224;2023-03-17T14:46:12;14.93;;;6.82;;
19923;SDS011;10124;53.068;18.224;2023-03-17T14:48:59;11.63;;;6.78;;
19923;SDS011;10124;53.068;18.224;2023-03-17T14:51:33;12.88;;;5.95;;
19923;SDS011;10124;53.068;18.224;2023-03-17T14:54:04;16.35;;;6.32;;
19923;SDS011;10124;53.068;18.224;2023-03-17T14:56:47;13.50;;;6.55;;
19923;SDS011;10124;53.068;18.224;2023-03-17T15:01:55;13.20;;;6.40;;
19923;SDS011;10124;53.068;18.224;2023-03-17T15:04:28;17.20;;;6.43;;
19923;SDS011;10124;53.068;18.224;2023-03-17T15:07:02;15.03;;;6.57;;
19923;SDS011;10124;53.068;18.224;2023-03-17T15:09:37;13.50;;;6.93;;
19923;SDS011;10124;53.068;18.224;2023-03-17T15:12:16;12.53;;;5.83;;
19923;SDS011;10124;53.068;18.224;2023-03-17T15:14:44;9.10;;;5.30;;
19923;SDS011;10124;53.068;18.224;2023-03-17T15:17:20;13.93;;;6.50;;
19923;SDS011;10124;53.068;18.224;2023-03-17T15:19:49;12.70;;;6.13;;
19923;SDS011;10124;53.068;18.224;2023-03-17T15:22:37;14.20;;;5.90;;
19923;SDS011;10124;53.068;18.224;2023-03-17T15:25:25;12.40;;;5.80;;
19923;SDS011;10124;53.068;18.224;2023-03-17T15:28:00;13.57;;;5.80;;
19923;SDS011;10124;53.068;18.224;2023-03-17T15:30:33;16.20;;;6.40;;
19923;SDS011;10124;53.068;18.224;2023-03-17T15:35:56;13.70;;;5.97;;
19923;SDS011;10124;53.068;18.224;2023-03-17T15:38:26;12.33;;;6.07;;
19923;SDS011;10124;53.068;18.224;2023-03-17T15:40:54;11.07;;;5.47;;
19923;SDS011;10124;53.068;18.224;2023-03-17T15:43:23;14.57;;;5.70;;
19923;SDS011;10124;53.068;18.224;2023-03-17T15:46:02;10.60;;;5.70;;
19923;SDS011;10124;53.068;18.224;2023-03-17T15:48:34;9.63;;;5.53;;
19923;SDS011;10124;53.068;18.224;2023-03-17T15:51:03;13.07;;;6.80;;
19923;SDS011;10124;53.068;18.224;2023-03-17T15:53:31;10.30;;;5.53;;
19923;SDS011;10124;53.068;18.224;2023-03-17T15:55:59;14.40;;;6.67;;
19923;SDS011;10124;53.068;18.224;2023-03-17T15:58:27;15.17;;;6.47;;
19923;SDS011;10124;53.068;18.224;2023-03-17T16:00:57;12.40;;;6.97;;
19923;SDS011;10124;53.068;18.224;2023-03-17T16:05:59;14.33;;;6.53;;
19923;SDS011;10124;53.068;18.224;2023-03-17T16:08:28;10.73;;;6.40;;
19923;SDS011;10124;53.068;18.224;2023-03-17T16:10:56;12.83;;;6.83;;
19923;SDS011;10124;53.068;18.224;2023-03-17T16:13:24;12.50;;;6.17;;
19923;SDS011;10124;53.068;18.224;2023-03-17T16:15:52;13.10;;;6.57;;
19923;SDS011;10124;53.068;18.224;2023-03-17T16:18:27;16.87;;;6.43;;
19923;SDS011;10124;53.068;18.224;2023-03-17T16:20:58;13.23;;;6.13;;